createdAt,value
2022-11-19T00:02:07.831Z,14.38
2022-11-19T00:04:35.790Z,13.40
2022-11-19T00:07:03.978Z,14.15
2022-11-19T00:09:33.001Z,13.60
2022-11-19T00:12:19.095Z,14.35
2022-11-19T00:14:49.205Z,15.00
2022-11-19T00:17:20.481Z,14.20
2022-11-19T00:19:48.210Z,14.07
2022-11-19T00:24:56.876Z,14.18
2022-11-19T00:27:24.107Z,14.48
2022-11-19T00:29:53.284Z,14.07
2022-11-19T00:32:20.838Z,14.43
2022-11-19T00:34:48.114Z,15.77
2022-11-19T00:37:15.881Z,14.85
2022-11-19T00:39:42.894Z,15.13
2022-11-19T00:42:14.463Z,15.18
2022-11-19T00:44:47.814Z,16.63
2022-11-19T00:47:16.478Z,15.90
2022-11-19T00:49:46.961Z,15.52
2022-11-19T00:52:14.389Z,17.00
2022-11-19T00:54:41.697Z,16.27
2022-11-19T00:57:10.199Z,16.45
2022-11-19T00:59:40.348Z,16.20
2022-11-19T01:02:10.406Z,16.27
2022-11-19T01:04:38.286Z,16.60
2022-11-19T01:07:05.588Z,16.50
2022-11-19T01:09:33.117Z,16.92
2022-11-19T01:12:01.171Z,16.30
2022-11-19T01:14:31.224Z,16.80
2022-11-19T01:16:58.594Z,17.80
2022-11-19T01:19:26.037Z,16.50
2022-11-19T01:21:53.138Z,17.58
2022-11-19T01:24:21.545Z,17.05
2022-11-19T01:26:49.049Z,17.35
2022-11-19T01:29:17.435Z,17.70
2022-11-19T01:31:46.328Z,17.70
2022-11-19T01:34:13.943Z,16.98
2022-11-19T01:36:41.585Z,16.63
2022-11-19T01:39:09.919Z,16.67
2022-11-19T01:41:37.656Z,16.90
2022-11-19T01:44:07.488Z,16.17
2022-11-19T01:46:38.115Z,17.23
2022-11-19T01:49:14.804Z,15.85
2022-11-19T01:52:01.224Z,16.88
2022-11-19T01:54:35.877Z,16.80
2022-11-19T01:57:11.674Z,16.30
2022-11-19T01:59:41.379Z,15.95
2022-11-19T02:02:08.965Z,16.33
2022-11-19T02:04:36.993Z,15.63
2022-11-19T02:07:04.993Z,17.20
2022-11-19T02:09:33.772Z,16.80
2022-11-19T02:12:25.365Z,17.10
2022-11-19T02:18:21.329Z,15.43
2022-11-19T02:21:09.037Z,16.33
2022-11-19T02:23:51.851Z,14.38
2022-11-19T02:29:57.242Z,14.77
2022-11-19T02:32:32.029Z,14.30
2022-11-19T02:35:19.537Z,14.20
2022-11-19T02:38:05.250Z,14.68
2022-11-19T02:40:44.154Z,15.35
2022-11-19T02:43:20.774Z,15.63
2022-11-19T02:46:21.578Z,15.50
2022-11-19T02:48:53.460Z,16.25
2022-11-19T02:51:23.960Z,17.92
2022-11-19T02:53:55.037Z,17.67
2022-11-19T02:57:07.150Z,17.23
2022-11-19T03:00:15.873Z,17.63
2022-11-19T03:03:12.192Z,18.30
2022-11-19T03:05:45.660Z,18.73
2022-11-19T03:08:13.324Z,18.75
2022-11-19T03:23:57.106Z,18.70
2022-11-19T03:26:48.708Z,19.33
2022-11-19T03:29:20.160Z,19.05
2022-11-19T03:31:52.380Z,20.38
2022-11-19T03:34:23.985Z,19.40
2022-11-19T03:36:59.439Z,20.00
2022-11-19T03:39:28.938Z,19.38
2022-11-19T03:41:58.112Z,19.38
2022-11-19T03:44:46.642Z,19.83
2022-11-19T03:50:09.345Z,20.85
2022-11-19T03:52:38.129Z,18.77
2022-11-19T03:55:36.883Z,20.27
2022-11-19T03:58:07.233Z,19.77
2022-11-19T04:00:37.598Z,19.40
2022-11-19T04:03:08.043Z,20.55
2022-11-19T04:05:35.843Z,19.23
2022-11-19T04:08:04.460Z,19.88
2022-11-19T04:10:31.851Z,19.08
2022-11-19T04:13:00.598Z,19.17
2022-11-19T04:15:28.606Z,18.17
2022-11-19T04:17:56.280Z,19.20
2022-11-19T04:20:24.609Z,18.10
2022-11-19T04:22:52.691Z,19.33
2022-11-19T04:25:25.748Z,17.92
2022-11-19T04:27:56.326Z,18.67
2022-11-19T04:33:07.601Z,17.17
2022-11-19T04:35:36.325Z,17.15
2022-11-19T04:40:47.462Z,18.35
2022-11-19T04:43:15.392Z,17.63
2022-11-19T04:45:43.706Z,16.80
2022-11-19T04:48:20.210Z,18.20
2022-11-19T04:50:51.353Z,17.98
2022-11-19T04:53:22.492Z,17.05
2022-11-19T04:55:50.916Z,18.35
2022-11-19T04:58:20.916Z,18.58
2022-11-19T05:00:52.197Z,18.10
2022-11-19T05:03:20.845Z,16.42
2022-11-19T05:05:48.947Z,16.20
2022-11-19T05:08:35.964Z,14.05
2022-11-19T05:11:03.254Z,13.07
2022-11-19T05:13:30.873Z,13.20
2022-11-19T05:16:00.760Z,12.05
2022-11-19T05:18:28.537Z,11.38
2022-11-19T05:20:57.438Z,11.02
2022-11-19T05:23:25.878Z,11.32
2022-11-19T05:25:57.268Z,11.75
2022-11-19T05:28:39.044Z,11.87
2022-11-19T05:31:08.098Z,11.48
2022-11-19T05:33:47.786Z,11.52
2022-11-19T05:36:20.471Z,11.85
2022-11-19T05:38:48.310Z,12.23
2022-11-19T05:41:18.998Z,12.00
2022-11-19T05:43:47.021Z,12.50
2022-11-19T05:46:15.127Z,13.27
2022-11-19T05:48:42.409Z,12.05
2022-11-19T05:51:21.393Z,12.32
2022-11-19T05:53:54.077Z,11.02
2022-11-19T05:56:25.005Z,11.68
2022-11-19T05:58:54.562Z,11.40
2022-11-19T06:01:32.735Z,12.48
2022-11-19T06:04:03.708Z,11.73
2022-11-19T06:06:31.647Z,11.18
2022-11-19T06:09:00.557Z,11.60
2022-11-19T06:11:47.293Z,11.38
2022-11-19T06:14:39.240Z,11.25
2022-11-19T06:17:09.770Z,11.30
2022-11-19T06:19:37.511Z,10.98
2022-11-19T06:22:05.617Z,11.98
2022-11-19T06:24:36.999Z,10.02
2022-11-19T06:27:08.833Z,9.85
2022-11-19T06:29:39.722Z,9.25
2022-11-19T06:32:10.957Z,9.13
2022-11-19T06:34:38.738Z,9.33
2022-11-19T06:37:06.823Z,7.57
2022-11-19T06:39:36.203Z,7.07
2022-11-19T06:42:23.358Z,7.30
2022-11-19T06:44:54.890Z,7.75
2022-11-19T06:47:25.033Z,6.43
2022-11-19T06:49:53.688Z,6.72
2022-11-19T06:52:24.133Z,7.07
2022-11-19T06:54:51.434Z,7.80
2022-11-19T06:57:19.613Z,7.70
2022-11-19T06:59:47.731Z,7.07
2022-11-19T07:02:20.263Z,7.30
2022-11-19T07:04:48.962Z,7.30
2022-11-19T07:07:16.548Z,8.20
2022-11-19T07:09:48.636Z,9.55
2022-11-19T07:12:24.160Z,8.80
2022-11-19T07:14:54.281Z,7.18
2022-11-19T07:17:23.441Z,8.13
2022-11-19T07:19:50.715Z,6.93
2022-11-19T07:22:18.810Z,6.70
2022-11-19T07:27:28.869Z,5.72
2022-11-19T07:30:08.338Z,5.90
2022-11-19T07:32:44.560Z,6.50
2022-11-19T07:35:14.494Z,5.93
2022-11-19T07:40:56.282Z,7.25
2022-11-19T07:43:24.348Z,7.05
2022-11-19T07:46:09.112Z,7.20
2022-11-19T07:48:47.251Z,7.00
2022-11-19T07:51:48.102Z,8.80
2022-11-19T07:54:21.539Z,8.30
2022-11-19T07:57:05.604Z,8.63
2022-11-19T08:02:16.033Z,9.88
2022-11-19T08:04:48.585Z,10.13
2022-11-19T08:10:17.683Z,10.05
2022-11-19T08:13:04.281Z,11.32
2022-11-19T08:15:34.931Z,11.07
2022-11-19T08:18:16.594Z,10.93
2022-11-19T08:20:46.453Z,10.27
2022-11-19T08:23:31.306Z,10.57
2022-11-19T08:26:00.590Z,11.40
2022-11-19T08:28:29.990Z,10.75
2022-11-19T08:31:07.021Z,11.88
2022-11-19T08:36:32.578Z,11.20
2022-11-19T08:39:04.229Z,13.00
2022-11-19T08:41:50.168Z,13.02
2022-11-19T08:44:18.441Z,13.70
2022-11-19T08:46:45.511Z,13.93
2022-11-19T08:49:13.104Z,15.30
2022-11-19T08:51:40.513Z,16.30
2022-11-19T08:54:07.930Z,16.70
2022-11-19T08:56:35.385Z,17.10
2022-11-19T08:59:03.411Z,17.55
2022-11-19T09:01:31.440Z,18.40
2022-11-19T09:03:58.702Z,18.98
2022-11-19T09:06:25.895Z,18.73
2022-11-19T09:08:53.199Z,18.27
2022-11-19T09:11:22.703Z,18.25
2022-11-19T09:13:50.149Z,19.02
2022-11-19T09:16:19.215Z,21.27
2022-11-19T09:18:47.015Z,20.77
2022-11-19T09:21:14.365Z,22.13
2022-11-19T09:23:42.616Z,20.05
2022-11-19T09:26:13.875Z,22.60
2022-11-19T09:28:41.670Z,21.07
2022-11-19T09:31:12.009Z,21.33
2022-11-19T09:33:44.733Z,20.95
2022-11-19T09:36:13.315Z,20.50
2022-11-19T09:38:41.535Z,20.55
2022-11-19T09:41:34.951Z,20.17
2022-11-19T09:44:35.817Z,18.77
2022-11-19T09:47:12.837Z,19.65
2022-11-19T09:49:53.959Z,20.17
2022-11-19T09:52:25.499Z,18.83
2022-11-19T09:54:55.767Z,20.45
2022-11-19T09:57:39.466Z,20.88
2022-11-19T10:00:08.442Z,19.20
2022-11-19T10:02:41.359Z,20.10
2022-11-19T10:05:14.913Z,19.42
2022-11-19T10:07:52.489Z,19.30
2022-11-19T10:10:44.220Z,18.85
2022-11-19T10:13:31.735Z,30.38
2022-11-19T10:16:23.049Z,23.40
2022-11-19T10:19:13.369Z,18.80
2022-11-19T10:21:46.432Z,19.63
2022-11-19T10:24:22.114Z,19.25
2022-11-19T10:27:05.794Z,17.83
2022-11-19T10:29:38.462Z,19.92
2022-11-19T10:32:21.464Z,19.58
2022-11-19T10:34:51.774Z,20.48
2022-11-19T10:37:22.705Z,18.88
2022-11-19T10:39:58.677Z,20.38
2022-11-19T10:42:28.801Z,20.05
2022-11-19T10:45:03.940Z,21.42
2022-11-19T10:47:43.643Z,26.50
2022-11-19T10:50:24.572Z,21.88
2022-11-19T10:53:18.429Z,23.30
2022-11-19T10:55:54.546Z,21.42
2022-11-19T10:58:45.965Z,19.33
2022-11-19T11:01:33.339Z,19.92
2022-11-19T11:04:06.467Z,19.10
2022-11-19T11:06:51.916Z,20.05
2022-11-19T11:09:36.712Z,20.40
2022-11-19T11:12:32.298Z,20.40
2022-11-19T11:15:12.867Z,20.05
2022-11-19T11:17:42.602Z,19.77
2022-11-19T11:20:18.177Z,20.52
2022-11-19T11:22:48.592Z,20.77
2022-11-19T11:25:29.902Z,21.30
2022-11-19T11:28:11.175Z,21.02
2022-11-19T11:30:42.147Z,20.45
2022-11-19T11:33:31.628Z,22.77
2022-11-19T11:36:06.660Z,24.15
2022-11-19T11:38:41.484Z,22.45
2022-11-19T11:42:03.347Z,22.05
2022-11-19T11:44:07.257Z,21.60
2022-11-19T11:46:50.646Z,22.10
2022-11-19T11:49:26.609Z,21.58
2022-11-19T11:52:07.041Z,21.17
2022-11-19T11:54:34.422Z,21.02
2022-11-19T11:57:23.331Z,20.83
2022-11-19T11:59:50.297Z,20.85
2022-11-19T12:02:32.812Z,20.02
2022-11-19T12:05:03.962Z,21.75
2022-11-19T12:07:43.088Z,21.58
2022-11-19T12:10:29.808Z,25.15
2022-11-19T12:13:12.197Z,30.65
2022-11-19T12:18:37.253Z,25.70
2022-11-19T12:21:12.324Z,25.08
2022-11-19T12:24:07.329Z,22.45
2022-11-19T12:27:04.663Z,25.10
2022-11-19T12:30:00.409Z,24.40
2022-11-19T12:32:30.505Z,24.23
2022-11-19T12:35:10.549Z,23.55
2022-11-19T12:37:43.178Z,23.23
2022-11-19T12:40:32.339Z,25.08
2022-11-19T12:43:24.471Z,26.52
2022-11-19T12:46:02.413Z,26.30
2022-11-19T12:48:54.166Z,25.23
2022-11-19T12:51:23.324Z,27.35
2022-11-19T12:54:31.716Z,27.08
2022-11-19T12:57:31.526Z,28.35
2022-11-19T13:00:29.154Z,30.60
2022-11-19T13:03:15.025Z,28.35
2022-11-19T13:05:57.676Z,27.83
2022-11-19T13:08:30.441Z,27.40
2022-11-19T13:11:08.464Z,27.98
2022-11-19T13:13:39.925Z,28.55
2022-11-19T13:16:17.123Z,27.55
2022-11-19T13:18:48.240Z,26.65
2022-11-19T13:21:35.436Z,26.33
2022-11-19T13:24:26.050Z,27.30
2022-11-19T13:26:55.701Z,26.75
2022-11-19T13:29:34.375Z,27.08
2022-11-19T13:32:10.358Z,25.92
2022-11-19T13:35:01.992Z,25.90
2022-11-19T13:37:48.035Z,25.40
2022-11-19T13:40:39.486Z,27.75
2022-11-19T13:43:36.354Z,25.40
2022-11-19T13:46:21.525Z,26.90
2022-11-19T13:49:01.618Z,27.88
2022-11-19T13:52:03.736Z,27.92
2022-11-19T13:54:36.695Z,27.92
2022-11-19T13:57:05.792Z,27.80
2022-11-19T13:59:47.360Z,28.40
2022-11-19T14:02:41.703Z,27.10
2022-11-19T14:05:41.226Z,28.75
2022-11-19T14:08:34.149Z,27.88
2022-11-19T14:11:01.185Z,26.55
2022-11-19T14:14:05.407Z,28.25
2022-11-19T14:17:07.593Z,27.10
2022-11-19T14:20:11.880Z,29.02
2022-11-19T14:23:01.167Z,26.55
2022-11-19T14:26:02.254Z,26.33
2022-11-19T14:28:45.369Z,26.52
2022-11-19T14:31:16.300Z,26.50
2022-11-19T14:33:49.032Z,26.00
2022-11-19T14:36:21.550Z,27.30
2022-11-19T14:38:55.841Z,29.83
2022-11-19T14:41:33.740Z,27.55
2022-11-19T14:44:27.361Z,28.25
2022-11-19T14:46:54.453Z,26.83
2022-11-19T14:49:25.943Z,28.80
2022-11-19T14:51:56.177Z,28.90
2022-11-19T14:54:33.431Z,27.35
2022-11-19T14:57:21.440Z,28.15
2022-11-19T14:59:52.329Z,28.48
2022-11-19T15:02:37.045Z,28.67
2022-11-19T15:05:13.655Z,28.67
2022-11-19T15:07:52.734Z,29.35
2022-11-19T15:10:33.270Z,27.38
2022-11-19T15:13:20.178Z,28.35
2022-11-19T15:15:52.989Z,26.75
2022-11-19T15:18:41.404Z,29.10
2022-11-19T15:21:27.089Z,30.50
2022-11-19T15:24:06.068Z,28.05
2022-11-19T15:26:54.299Z,28.40
2022-11-19T15:29:45.567Z,31.02
2022-11-19T15:32:18.320Z,31.58
2022-11-19T15:35:14.452Z,31.38
2022-11-19T15:38:05.608Z,34.20
2022-11-19T15:40:34.222Z,32.60
2022-11-19T15:43:16.741Z,34.40
2022-11-19T15:45:49.949Z,34.78
2022-11-19T15:48:38.998Z,35.53
2022-11-19T15:51:08.275Z,35.05
2022-11-19T15:53:35.591Z,34.20
2022-11-19T15:56:08.901Z,36.13
2022-11-19T15:58:40.879Z,33.80
2022-11-19T16:01:22.008Z,33.45
2022-11-19T16:03:53.749Z,33.53
2022-11-19T16:06:27.638Z,34.13
2022-11-19T16:08:57.971Z,35.13
2022-11-19T16:11:47.499Z,34.95
2022-11-19T16:14:44.744Z,33.58
2022-11-19T16:17:35.833Z,33.70
2022-11-19T16:20:07.817Z,31.35
2022-11-19T16:22:45.881Z,32.50
2022-11-19T16:25:27.257Z,32.30
2022-11-19T16:28:01.168Z,32.03
2022-11-19T16:30:42.664Z,33.00
2022-11-19T16:33:24.864Z,32.30
2022-11-19T16:35:54.005Z,32.42
2022-11-19T16:38:28.931Z,32.92
2022-11-19T16:41:16.242Z,34.80
2022-11-19T16:43:48.765Z,32.13
2022-11-19T16:46:34.047Z,34.28
2022-11-19T16:49:03.883Z,33.97
2022-11-19T16:51:55.257Z,32.58
2022-11-19T16:54:52.348Z,34.00
2022-11-19T16:57:23.798Z,30.73
2022-11-19T16:59:57.535Z,34.40
2022-11-19T17:02:36.171Z,34.65
2022-11-19T17:05:08.820Z,32.40
2022-11-19T17:07:37.017Z,31.85
2022-11-19T17:10:31.252Z,31.17
2022-11-19T17:13:04.298Z,33.15
2022-11-19T17:15:46.813Z,31.92
2022-11-19T17:18:20.855Z,32.40
2022-11-19T17:20:52.910Z,30.98
2022-11-19T17:23:23.110Z,32.97
2022-11-19T17:25:55.885Z,30.25
2022-11-19T17:28:45.395Z,33.58
2022-11-19T17:31:20.265Z,31.77
2022-11-19T17:34:12.141Z,31.67
2022-11-19T17:36:44.001Z,31.50
2022-11-19T17:39:12.973Z,30.50
2022-11-19T17:41:59.779Z,34.13
2022-11-19T17:44:34.749Z,30.85
2022-11-19T17:47:21.105Z,32.15
2022-11-19T17:49:51.774Z,32.08
2022-11-19T17:52:30.267Z,32.38
2022-11-19T17:55:22.974Z,31.58
2022-11-19T17:57:49.992Z,31.80
2022-11-19T18:00:17.534Z,32.00
2022-11-19T18:02:58.967Z,33.25
2022-11-19T18:05:32.746Z,32.08
2022-11-19T18:07:59.999Z,32.97
2022-11-19T18:10:27.796Z,30.77
2022-11-19T18:12:54.916Z,32.17
2022-11-19T18:15:22.268Z,30.60
2022-11-19T18:17:54.710Z,31.48
2022-11-19T18:20:22.052Z,32.47
2022-11-19T18:22:49.324Z,31.02
2022-11-19T18:25:19.422Z,30.02
2022-11-19T18:27:46.403Z,31.13
2022-11-19T18:30:14.743Z,33.42
2022-11-19T18:32:45.101Z,32.83
2022-11-19T18:35:16.943Z,34.03
2022-11-19T18:37:45.262Z,32.40
2022-11-19T18:40:14.635Z,31.73
2022-11-19T18:43:01.101Z,33.13
2022-11-19T18:45:28.535Z,31.33
2022-11-19T18:47:56.121Z,31.30
2022-11-19T18:50:29.324Z,31.30
2022-11-19T18:52:58.641Z,31.48
2022-11-19T18:55:25.951Z,32.92
2022-11-19T18:57:52.880Z,33.13
2022-11-19T19:00:20.175Z,35.90
2022-11-19T19:02:48.189Z,33.42
2022-11-19T19:05:15.138Z,31.73
2022-11-19T19:07:42.212Z,32.08
2022-11-19T19:10:09.931Z,29.05
2022-11-19T19:12:36.909Z,30.42
2022-11-19T19:15:04.420Z,30.58
2022-11-19T19:17:31.487Z,28.83
2022-11-19T19:19:58.614Z,28.33
2022-11-19T19:22:25.823Z,26.90
2022-11-19T19:24:57.952Z,27.77
2022-11-19T19:27:26.092Z,27.45
2022-11-19T19:29:53.438Z,30.90
2022-11-19T19:32:20.650Z,25.75
2022-11-19T19:34:47.932Z,26.98
2022-11-19T19:37:17.347Z,26.40
2022-11-19T19:39:44.819Z,28.77
2022-11-19T19:42:12.250Z,29.35
2022-11-19T19:44:39.493Z,29.33
2022-11-19T19:47:17.922Z,30.15
2022-11-19T19:49:45.095Z,29.85
2022-11-19T19:52:12.631Z,30.25
2022-11-19T19:54:41.434Z,28.88
2022-11-19T19:57:09.094Z,27.23
2022-11-19T19:59:36.129Z,28.63
2022-11-19T20:02:03.495Z,28.40
2022-11-19T20:04:32.806Z,26.70
2022-11-19T20:07:00.175Z,24.73
2022-11-19T20:09:27.802Z,25.33
2022-11-19T20:11:54.968Z,27.95
2022-11-19T20:14:22.185Z,25.38
2022-11-19T20:16:49.978Z,22.75
2022-11-19T20:19:17.410Z,24.90
2022-11-19T20:21:47.191Z,24.25
2022-11-19T20:24:14.593Z,24.13
2022-11-19T20:26:42.686Z,24.58
2022-11-19T20:29:11.722Z,24.52
2022-11-19T20:31:44.900Z,24.02
2022-11-19T20:34:13.132Z,22.88
2022-11-19T20:36:42.633Z,22.67
2022-11-19T20:39:09.953Z,23.80
2022-11-19T20:41:55.784Z,23.58
2022-11-19T20:44:26.175Z,22.58
2022-11-19T20:47:03.748Z,23.40
2022-11-19T20:49:33.147Z,23.02
2022-11-19T20:52:02.465Z,22.00
2022-11-19T20:54:29.687Z,21.17
2022-11-19T20:56:57.580Z,23.63
2022-11-19T20:59:26.349Z,23.67
2022-11-19T21:01:54.998Z,22.15
2022-11-19T21:04:23.149Z,22.58
2022-11-19T21:06:50.284Z,22.90
2022-11-19T21:09:19.773Z,22.33
2022-11-19T21:11:47.500Z,21.10
2022-11-19T21:14:14.515Z,23.33
2022-11-19T21:16:41.417Z,23.50
2022-11-19T21:19:10.817Z,23.63
2022-11-19T21:21:38.374Z,22.38
2022-11-19T21:24:06.880Z,23.48
2022-11-19T21:26:34.335Z,19.98
2022-11-19T21:29:01.420Z,21.70
2022-11-19T21:31:40.597Z,21.75
2022-11-19T21:34:09.821Z,21.63
2022-11-19T21:36:37.455Z,22.30
2022-11-19T21:39:05.678Z,21.63
2022-11-19T21:41:33.212Z,20.73
2022-11-19T21:44:01.492Z,22.40
2022-11-19T21:46:28.581Z,21.63
2022-11-19T21:48:55.869Z,20.92
2022-11-19T21:51:25.127Z,22.52
2022-11-19T21:53:58.527Z,20.48
2022-11-19T21:56:26.912Z,20.73
2022-11-19T21:58:54.501Z,20.77
2022-11-19T22:01:21.661Z,23.20
2022-11-19T22:03:48.972Z,21.45
2022-11-19T22:06:16.090Z,20.63
2022-11-19T22:08:44.535Z,20.83
2022-11-19T22:11:31.179Z,20.67
2022-11-19T22:14:04.147Z,19.92
2022-11-19T22:16:33.862Z,20.17
2022-11-19T22:19:01.574Z,18.10
2022-11-19T22:21:31.746Z,19.33
2022-11-19T22:23:58.957Z,20.10
2022-11-19T22:26:26.119Z,18.63
2022-11-19T22:28:53.175Z,20.48
2022-11-19T22:31:20.401Z,19.45
2022-11-19T22:33:51.942Z,18.33
2022-11-19T22:36:20.455Z,19.20
2022-11-19T22:38:51.836Z,20.10
2022-11-19T22:41:21.554Z,18.75
2022-11-19T22:43:49.291Z,19.00
2022-11-19T22:46:17.318Z,19.13
2022-11-19T22:48:44.400Z,19.60
2022-11-19T22:51:13.904Z,18.38
2022-11-19T22:53:41.475Z,19.08
2022-11-19T22:56:10.938Z,19.08
2022-11-19T22:58:38.522Z,19.00
2022-11-19T23:01:14.936Z,18.02
2022-11-19T23:03:44.284Z,18.98
2022-11-19T23:06:11.651Z,17.08
2022-11-19T23:08:38.611Z,18.05
2022-11-19T23:11:07.473Z,19.23
2022-11-19T23:13:39.226Z,19.58
2022-11-19T23:16:21.244Z,18.08
2022-11-19T23:18:53.754Z,18.85
2022-11-19T23:21:28.803Z,18.95
2022-11-19T23:23:57.753Z,18.70
2022-11-19T23:26:26.884Z,17.33
2022-11-19T23:28:54.720Z,19.27
2022-11-19T23:31:36.023Z,19.05
2022-11-19T23:34:03.186Z,18.73
2022-11-19T23:36:36.441Z,19.42
2022-11-19T23:39:05.509Z,19.33
2022-11-19T23:41:33.833Z,19.13
2022-11-19T23:44:01.137Z,19.38
2022-11-19T23:46:34.115Z,18.67
2022-11-19T23:49:02.174Z,18.02
2022-11-19T23:51:37.443Z,18.73
2022-11-19T23:54:05.542Z,19.35
2022-11-19T23:56:34.257Z,19.67
2022-11-19T23:59:02.493Z,19.88
